createdAt,value
2019-04-23T00:04:08.459Z,3.58
2019-04-23T00:06:42.946Z,3.47
2019-04-23T00:11:40.989Z,3.90
2019-04-23T00:18:49.470Z,3.78
2019-04-23T00:21:33.101Z,3.50
2019-04-23T00:24:13.913Z,4.00
2019-04-23T00:26:35.474Z,3.90
2019-04-23T00:28:58.874Z,3.83
2019-04-23T00:31:24.029Z,3.60
2019-04-23T00:33:49.612Z,3.90
2019-04-23T00:36:25.874Z,4.10
2019-04-23T00:41:20.816Z,4.03
2019-04-23T00:43:50.961Z,4.30
2019-04-23T00:46:15.410Z,3.90
2019-04-23T00:51:09.159Z,3.90
2019-04-23T00:53:32.662Z,3.83
2019-04-23T00:56:29.987Z,3.83
2019-04-23T01:01:04.151Z,3.70
2019-04-23T01:03:25.689Z,3.97
2019-04-23T01:06:00.615Z,3.83
2019-04-23T01:08:29.692Z,4.35
2019-04-23T01:11:08.247Z,4.00
2019-04-23T01:15:56.336Z,3.85
2019-04-23T01:18:50.514Z,4.10
2019-04-23T01:20:52.979Z,3.75
2019-04-23T01:23:05.398Z,4.13
2019-04-23T01:25:45.156Z,4.25
2019-04-23T01:28:26.642Z,3.80
2019-04-23T01:30:57.006Z,4.40
2019-04-23T01:33:28.781Z,4.15
2019-04-23T01:36:07.812Z,4.03
2019-04-23T01:38:18.460Z,4.07
2019-04-23T01:41:01.276Z,4.07
2019-04-23T01:43:16.250Z,3.87
2019-04-23T01:45:34.322Z,4.05
2019-04-23T01:48:05.217Z,4.00
2019-04-23T01:50:47.324Z,4.18
2019-04-23T01:53:14.879Z,3.90
2019-04-23T01:55:51.404Z,4.45
2019-04-23T01:58:23.749Z,4.10
2019-04-23T02:00:39.174Z,4.10
2019-04-23T02:03:10.972Z,4.32
2019-04-23T02:08:03.982Z,4.10
2019-04-23T02:13:03.815Z,4.22
2019-04-23T02:15:33.170Z,4.15
2019-04-23T02:18:02.160Z,3.85
2019-04-23T02:20:30.865Z,3.87
2019-04-23T02:25:34.921Z,4.20
2019-04-23T02:28:01.870Z,4.28
2019-04-23T02:33:10.724Z,4.05
2019-04-23T02:35:36.701Z,4.18
2019-04-23T02:40:26.337Z,4.00
2019-04-23T02:45:16.116Z,4.35
2019-04-23T02:47:55.467Z,4.28
2019-04-23T02:50:34.551Z,4.45
2019-04-23T02:52:37.275Z,4.27
2019-04-23T02:55:15.554Z,4.50
2019-04-23T02:57:37.020Z,4.07
2019-04-23T03:10:03.252Z,4.00
2019-04-23T03:15:00.920Z,4.32
2019-04-23T03:23:05.577Z,4.30
2019-04-23T03:34:19.602Z,4.37
2019-04-23T03:36:14.136Z,4.22
2019-04-23T03:37:48.952Z,4.50
2019-04-23T03:40:11.642Z,4.10
2019-04-23T03:42:42.754Z,4.15
2019-04-23T03:47:38.561Z,4.43
2019-04-23T03:52:34.313Z,4.25
2019-04-23T03:55:05.751Z,4.15
2019-04-23T04:00:08.215Z,4.20
2019-04-23T04:02:54.836Z,4.10
2019-04-23T04:04:49.890Z,4.25
2019-04-23T04:09:51.821Z,4.00
2019-04-23T04:12:30.031Z,4.32
2019-04-23T04:15:13.177Z,4.30
2019-04-23T04:27:12.415Z,4.73
2019-04-23T04:29:54.984Z,4.68
2019-04-23T04:37:35.627Z,4.70
2019-04-23T04:39:33.633Z,4.87
2019-04-23T04:46:59.799Z,4.62
2019-04-23T04:52:11.749Z,5.00
2019-04-23T04:54:21.490Z,4.72
2019-04-23T04:56:56.547Z,4.73
2019-04-23T04:59:13.993Z,4.47
2019-04-23T05:01:48.316Z,4.33
2019-04-23T05:04:24.741Z,4.28
2019-04-23T05:06:56.865Z,4.78
2019-04-23T05:11:46.104Z,4.90
2019-04-23T05:14:08.451Z,4.97
2019-04-23T05:16:35.573Z,4.50
2019-04-23T05:19:12.598Z,4.90
2019-04-23T05:21:46.653Z,4.70
2019-04-23T05:24:00.957Z,4.37
2019-04-23T05:29:05.836Z,4.55
2019-04-23T05:31:23.156Z,4.82
2019-04-23T05:34:01.506Z,4.50
2019-04-23T05:41:21.946Z,4.60
2019-04-23T05:43:46.405Z,4.70
2019-04-23T05:46:21.244Z,4.40
2019-04-23T05:48:49.029Z,4.72
2019-04-23T05:53:39.691Z,4.60
2019-04-23T05:56:06.523Z,5.20
2019-04-23T05:58:40.023Z,4.83
2019-04-23T06:01:34.627Z,4.93
2019-04-23T06:03:38.453Z,4.80
2019-04-23T06:06:12.639Z,5.07
2019-04-23T06:08:38.569Z,5.37
2019-04-23T06:11:09.767Z,5.00
2019-04-23T06:13:35.911Z,4.93
2019-04-23T06:15:58.143Z,5.27
2019-04-23T06:18:36.831Z,5.20
2019-04-23T06:23:36.575Z,5.35
2019-04-23T06:26:08.061Z,5.03
2019-04-23T06:28:22.335Z,4.90
2019-04-23T06:31:02.277Z,5.13
2019-04-23T06:33:21.135Z,5.50
2019-04-23T06:35:53.366Z,5.30
2019-04-23T06:45:41.689Z,5.37
2019-04-23T06:48:18.379Z,5.00
2019-04-23T06:50:41.497Z,5.10
2019-04-23T06:53:02.131Z,5.35
2019-04-23T06:55:37.403Z,4.90
2019-04-23T06:58:08.686Z,4.93
2019-04-23T07:00:38.048Z,4.70
2019-04-23T07:02:59.695Z,4.90
2019-04-23T07:05:34.780Z,4.70
2019-04-23T07:08:00.890Z,4.70
2019-04-23T07:10:25.239Z,5.03
2019-04-23T07:12:57.680Z,4.78
2019-04-23T07:15:38.030Z,4.25
2019-04-23T07:18:03.853Z,5.18
2019-04-23T07:20:30.344Z,4.72
2019-04-23T07:22:59.595Z,4.77
2019-04-23T07:25:29.496Z,4.40
2019-04-23T07:27:56.920Z,4.17
2019-04-23T07:30:23.723Z,4.80
2019-04-23T07:32:49.586Z,4.53
2019-04-23T07:37:51.704Z,4.72
2019-04-23T07:40:27.104Z,5.03
2019-04-23T07:43:03.184Z,4.85
2019-04-23T07:45:45.495Z,4.80
2019-04-23T07:48:16.634Z,4.62
2019-04-23T07:50:46.236Z,4.53
2019-04-23T07:53:19.685Z,4.15
2019-04-23T07:58:14.247Z,4.50
2019-04-23T08:00:41.408Z,4.30
2019-04-23T08:03:10.687Z,4.62
2019-04-23T08:05:37.717Z,4.30
2019-04-23T08:08:00.293Z,4.68
2019-04-23T08:10:27.827Z,4.20
2019-04-23T08:13:00.363Z,4.43
2019-04-23T08:15:28.323Z,4.10
2019-04-23T08:17:56.178Z,4.60
2019-04-23T08:20:22.979Z,4.15
2019-04-23T08:22:45.483Z,4.30
2019-04-23T08:25:44.835Z,4.10
2019-04-23T08:28:07.995Z,4.37
2019-04-23T08:30:33.358Z,4.30
2019-04-23T08:33:04.620Z,4.37
2019-04-23T08:35:29.988Z,4.53
2019-04-23T08:43:02.071Z,4.57
2019-04-23T08:45:21.755Z,4.07
2019-04-23T08:47:52.599Z,4.20
2019-04-23T08:50:24.780Z,4.17
2019-04-23T08:52:52.093Z,4.30
2019-04-23T08:55:14.473Z,3.93
2019-04-23T08:57:37.612Z,4.50
2019-04-23T09:00:17.859Z,3.80
2019-04-23T09:02:40.272Z,4.07
2019-04-23T09:05:19.332Z,4.00
2019-04-23T09:07:35.891Z,4.10
2019-04-23T09:12:36.713Z,4.50
2019-04-23T09:15:07.682Z,4.03
2019-04-23T09:17:34.796Z,4.40
2019-04-23T09:20:13.367Z,4.25
2019-04-23T09:22:32.609Z,4.20
2019-04-23T09:25:02.632Z,4.15
2019-04-23T09:27:28.921Z,4.20
2019-04-23T09:37:54.225Z,4.70
2019-04-23T09:40:25.280Z,4.53
2019-04-23T09:43:05.831Z,4.22
2019-04-23T09:45:28.255Z,4.60
2019-04-23T09:47:57.357Z,5.13
2019-04-23T09:53:06.319Z,4.18
2019-04-23T09:55:27.533Z,4.47
2019-04-23T09:57:48.552Z,4.35
2019-04-23T10:00:25.007Z,4.68
2019-04-23T10:02:33.949Z,4.22
2019-04-23T10:04:59.812Z,4.35
2019-04-23T10:07:27.063Z,4.50
2019-04-23T10:09:42.523Z,4.23
2019-04-23T10:12:11.458Z,4.20
2019-04-23T10:14:38.638Z,4.12
2019-04-23T10:17:06.435Z,4.32
2019-04-23T10:19:35.067Z,5.43
2019-04-23T10:22:02.024Z,11.68
2019-04-23T10:24:31.011Z,4.12
2019-04-23T10:26:58.115Z,3.80
2019-04-23T10:29:27.703Z,4.00
2019-04-23T10:31:55.553Z,3.80
2019-04-23T10:34:23.354Z,4.12
2019-04-23T10:36:51.603Z,4.18
2019-04-23T10:39:23.991Z,3.80
2019-04-23T10:41:48.834Z,3.65
2019-04-23T10:44:26.830Z,3.70
2019-04-23T10:47:23.459Z,3.53
2019-04-23T10:52:37.639Z,3.80
2019-04-23T10:54:50.837Z,3.95
2019-04-23T11:02:32.838Z,3.72
2019-04-23T11:07:27.082Z,3.70
2019-04-23T11:12:28.833Z,3.15
2019-04-23T11:17:16.440Z,3.45
2019-04-23T11:22:30.200Z,4.05
2019-04-23T11:27:07.910Z,3.58
2019-04-23T11:32:05.984Z,3.20
2019-04-23T11:34:48.060Z,2.97
2019-04-23T11:37:12.370Z,2.50
2019-04-23T11:39:32.707Z,2.83
2019-04-23T11:41:58.258Z,3.30
2019-04-23T11:44:27.907Z,2.95
2019-04-23T11:49:34.873Z,2.85
2019-04-23T11:54:17.710Z,3.30
2019-04-23T11:59:22.924Z,3.28
2019-04-23T12:04:45.309Z,3.20
2019-04-23T12:12:33.247Z,3.60
2019-04-23T12:15:07.411Z,3.42
2019-04-23T12:17:37.869Z,3.30
2019-04-23T12:20:16.218Z,3.78
2019-04-23T12:30:08.355Z,3.78
2019-04-23T12:35:03.759Z,3.20
2019-04-23T12:37:24.542Z,4.10
2019-04-23T12:39:54.697Z,3.65
2019-04-23T12:42:38.288Z,3.45
2019-04-23T12:44:45.870Z,3.80
2019-04-23T12:47:27.503Z,3.35
2019-04-23T12:52:11.415Z,5.63
2019-04-23T12:54:53.870Z,4.70
2019-04-23T12:59:36.430Z,3.45
2019-04-23T13:02:03.508Z,2.90
2019-04-23T13:04:38.095Z,3.10
2019-04-23T13:07:00.482Z,3.10
2019-04-23T13:09:41.784Z,3.28
2019-04-23T13:11:58.041Z,3.12
2019-04-23T13:14:25.170Z,2.92
2019-04-23T13:17:02.695Z,3.72
2019-04-23T13:19:33.935Z,3.37
2019-04-23T13:22:04.434Z,2.93
2019-04-23T13:27:23.839Z,3.22
2019-04-23T13:29:50.059Z,3.42
2019-04-23T13:32:09.635Z,2.90
2019-04-23T13:34:48.358Z,3.17
2019-04-23T13:37:20.222Z,3.05
2019-04-23T13:39:41.850Z,2.90
2019-04-23T13:42:19.766Z,3.03
2019-04-23T13:44:43.992Z,2.80
2019-04-23T13:47:10.621Z,2.95
2019-04-23T13:49:36.781Z,2.50
2019-04-23T13:52:14.242Z,2.75
2019-04-23T13:54:50.226Z,2.67
2019-04-23T13:59:44.455Z,2.60
2019-04-23T14:01:54.767Z,2.50
2019-04-23T14:04:48.427Z,2.60
2019-04-23T14:07:07.831Z,2.25
2019-04-23T14:09:50.851Z,2.90
2019-04-23T14:12:04.388Z,5.60
2019-04-23T14:19:26.150Z,2.70
2019-04-23T14:21:59.324Z,3.08
2019-04-23T14:26:50.661Z,3.20
2019-04-23T14:29:26.441Z,3.05
2019-04-23T14:31:47.441Z,3.05
2019-04-23T14:34:11.495Z,3.00
2019-04-23T14:36:43.178Z,2.85
2019-04-23T14:39:10.072Z,2.97
2019-04-23T14:41:57.743Z,2.70
2019-04-23T14:44:12.910Z,2.65
2019-04-23T14:49:03.551Z,2.60
2019-04-23T14:51:39.728Z,2.83
2019-04-23T14:54:23.415Z,2.83
2019-04-23T14:59:01.633Z,2.37
2019-04-23T15:01:35.712Z,2.47
2019-04-23T15:06:33.321Z,2.28
2019-04-23T15:08:58.940Z,2.67
2019-04-23T15:11:29.631Z,2.45
2019-04-23T15:13:50.093Z,2.20
2019-04-23T15:21:52.004Z,2.33
2019-04-23T15:24:03.871Z,1.90
2019-04-23T15:27:29.590Z,1.65
2019-04-23T15:28:37.299Z,2.17
2019-04-23T15:31:26.559Z,1.70
2019-04-23T15:34:00.974Z,1.73
2019-04-23T15:39:08.813Z,1.70
2019-04-23T15:41:25.478Z,1.80
2019-04-23T15:43:57.404Z,1.60
2019-04-23T15:48:54.288Z,1.67
2019-04-23T15:51:20.334Z,1.92
2019-04-23T15:53:42.346Z,3.00
2019-04-23T15:56:24.727Z,1.70
2019-04-23T15:58:48.438Z,1.30
2019-04-23T16:01:15.428Z,1.60
2019-04-23T16:03:13.564Z,1.40
2019-04-23T16:05:41.270Z,1.40
2019-04-23T16:08:50.012Z,1.60
2019-04-23T16:11:15.737Z,1.70
2019-04-23T16:13:37.087Z,1.30
2019-04-23T16:16:08.877Z,1.40
2019-04-23T16:18:49.864Z,1.30
2019-04-23T16:21:22.470Z,1.27
2019-04-23T16:23:43.837Z,1.40
2019-04-23T16:26:21.110Z,1.40
2019-04-23T16:29:00.291Z,1.40
2019-04-23T16:31:23.844Z,1.30
2019-04-23T16:33:40.733Z,1.42
2019-04-23T16:36:10.923Z,1.33
2019-04-23T16:41:09.551Z,1.25
2019-04-23T16:43:35.407Z,1.20
2019-04-23T16:46:08.100Z,1.20
2019-04-23T16:48:40.705Z,1.10
2019-04-23T16:53:24.112Z,1.42
2019-04-23T16:56:06.920Z,1.50
2019-04-23T17:03:28.970Z,1.50
2019-04-23T17:05:57.181Z,1.85
2019-04-23T17:10:51.194Z,2.08
2019-04-23T17:15:53.737Z,1.90
2019-04-23T17:18:17.365Z,2.40
2019-04-23T17:23:14.652Z,2.25
2019-04-23T17:28:12.539Z,2.10
2019-04-23T17:30:33.658Z,2.10
2019-04-23T17:33:13.889Z,2.28
2019-04-23T17:35:45.443Z,2.22
2019-04-23T17:38:10.747Z,2.42
2019-04-23T17:40:30.955Z,2.37
2019-04-23T17:43:04.979Z,2.60
2019-04-23T17:48:15.801Z,2.58
2019-04-23T17:53:21.623Z,4.63
2019-04-23T17:55:56.350Z,2.65
2019-04-23T17:58:17.725Z,2.50
2019-04-23T18:00:51.121Z,2.10
2019-04-23T18:03:11.093Z,2.60
2019-04-23T18:05:40.058Z,2.37
2019-04-23T18:08:05.497Z,2.45
2019-04-23T18:13:04.402Z,2.40
2019-04-23T18:15:27.520Z,2.35
2019-04-23T18:20:30.002Z,2.30
2019-04-23T18:25:30.913Z,2.50
2019-04-23T18:27:54.491Z,2.62
2019-04-23T18:30:28.803Z,2.62
2019-04-23T18:37:49.155Z,2.42
2019-04-23T18:40:10.381Z,2.53
2019-04-23T18:42:53.884Z,2.83
2019-04-23T18:45:25.135Z,2.40
2019-04-23T18:47:56.099Z,2.58
2019-04-23T18:50:59.404Z,2.75
2019-04-23T18:53:35.218Z,2.73
2019-04-23T18:56:04.122Z,2.80
2019-04-23T18:58:22.362Z,2.80
2019-04-23T19:03:21.843Z,2.78
2019-04-23T19:06:04.773Z,2.78
2019-04-23T19:08:32.078Z,2.50
2019-04-23T19:11:05.912Z,2.97
2019-04-23T19:13:39.849Z,2.95
2019-04-23T19:15:53.079Z,3.05
2019-04-23T19:18:29.670Z,2.97
2019-04-23T19:21:02.316Z,2.83
2019-04-23T19:25:46.750Z,3.30
2019-04-23T19:28:39.336Z,3.30
2019-04-23T19:30:53.580Z,3.35
2019-04-23T19:33:31.466Z,3.25
2019-04-23T19:36:05.070Z,3.55
2019-04-23T19:38:21.323Z,3.30
2019-04-23T19:40:51.753Z,3.40
2019-04-23T19:43:12.162Z,3.40
2019-04-23T19:45:49.727Z,3.40
2019-04-23T19:50:49.008Z,3.30
2019-04-23T19:55:47.419Z,3.40
2019-04-23T19:58:06.149Z,3.35
2019-04-23T20:00:51.146Z,3.50
2019-04-23T20:05:30.861Z,3.28
2019-04-23T20:07:55.407Z,3.80
2019-04-23T20:10:28.561Z,3.72
2019-04-23T20:12:45.978Z,3.50
2019-04-23T20:15:21.915Z,3.53
2019-04-23T20:20:18.232Z,3.50
2019-04-23T20:25:44.179Z,3.47
2019-04-23T20:33:35.010Z,3.30
2019-04-23T20:35:21.624Z,3.40
2019-04-23T20:38:18.975Z,3.55
2019-04-23T20:40:23.716Z,3.40
2019-04-23T20:42:49.738Z,3.47
2019-04-23T20:45:16.527Z,3.50
2019-04-23T20:47:50.330Z,3.58
2019-04-23T20:49:58.842Z,3.60
2019-04-23T20:52:33.995Z,3.62
2019-04-23T20:55:08.498Z,3.60
2019-04-23T21:00:08.919Z,3.70
2019-04-23T21:05:09.815Z,3.90
2019-04-23T21:07:52.601Z,3.80
2019-04-23T21:12:50.179Z,3.70
2019-04-23T21:17:35.591Z,3.70
2019-04-23T21:22:17.432Z,3.90
2019-04-23T21:27:32.585Z,3.90
2019-04-23T21:30:00.622Z,3.70
2019-04-23T21:32:27.123Z,3.87
2019-04-23T21:34:56.394Z,3.72
2019-04-23T21:37:23.846Z,3.80
2019-04-23T21:40:19.437Z,3.70
2019-04-23T21:42:21.154Z,3.95
2019-04-23T21:44:45.628Z,4.10
2019-04-23T21:47:09.090Z,3.75
2019-04-23T21:52:11.453Z,3.55
2019-04-23T21:54:39.540Z,3.57
2019-04-23T21:57:00.598Z,3.80
2019-04-23T21:59:35.240Z,3.70
2019-04-23T22:01:58.827Z,3.95
2019-04-23T22:04:44.958Z,3.70
2019-04-23T22:06:56.894Z,4.07
2019-04-23T22:09:31.447Z,3.90
2019-04-23T22:12:03.443Z,3.80
2019-04-23T22:16:57.581Z,3.50
2019-04-23T22:19:20.223Z,3.97
2019-04-23T22:21:50.924Z,4.00
2019-04-23T22:26:38.135Z,3.85
2019-04-23T22:29:44.711Z,4.03
2019-04-23T22:31:44.303Z,4.22
2019-04-23T22:34:16.774Z,4.50
2019-04-23T22:36:46.486Z,4.05
2019-04-23T22:39:09.765Z,4.00
2019-04-23T22:46:38.035Z,4.15
2019-04-23T22:49:09.294Z,4.50
2019-04-23T22:51:38.349Z,4.32
2019-04-23T22:54:00.128Z,4.40
2019-04-23T22:56:43.945Z,4.30
2019-04-23T22:59:01.502Z,4.50
2019-04-23T23:03:51.187Z,4.07
2019-04-23T23:06:26.083Z,4.40
2019-04-23T23:09:01.069Z,4.65
2019-04-23T23:11:13.978Z,4.37
2019-04-23T23:14:04.606Z,4.37
2019-04-23T23:16:08.516Z,4.65
2019-04-23T23:18:57.403Z,4.68
2019-04-23T23:21:05.365Z,4.55
2019-04-23T23:23:52.969Z,4.67
2019-04-23T23:28:35.189Z,4.60
2019-04-23T23:31:07.026Z,4.47
2019-04-23T23:33:30.429Z,4.63
2019-04-23T23:36:00.192Z,4.50
2019-04-23T23:38:33.367Z,4.73
2019-04-23T23:41:03.689Z,4.53
2019-04-23T23:43:25.813Z,4.60
2019-04-23T23:46:06.975Z,4.78
2019-04-23T23:50:54.634Z,4.70
2019-04-23T23:53:23.317Z,4.40
2019-04-23T23:55:49.291Z,4.60
2019-04-23T23:58:26.856Z,4.55
